createdAt,value
2023-03-30T00:03:46.185Z,3.53
2023-03-30T00:08:03.904Z,3.47
2023-03-30T00:12:21.152Z,3.65
2023-03-30T00:16:38.506Z,3.42
2023-03-30T00:20:56.770Z,3.20
2023-03-30T00:25:16.083Z,2.97
2023-03-30T00:29:33.585Z,3.58
2023-03-30T00:33:51.844Z,3.60
2023-03-30T00:38:09.081Z,3.85
2023-03-30T00:42:26.337Z,3.70
2023-03-30T00:46:43.686Z,2.92
2023-03-30T00:51:11.346Z,3.33
2023-03-30T00:55:30.897Z,4.25
2023-03-30T00:59:49.705Z,3.10
2023-03-30T01:04:09.877Z,3.42
2023-03-30T01:08:32.640Z,2.97
2023-03-30T01:12:50.381Z,2.85
2023-03-30T01:17:32.064Z,2.78
2023-03-30T01:21:55.659Z,2.85
2023-03-30T01:26:48.806Z,2.53
2023-03-30T01:31:25.719Z,2.63
2023-03-30T01:35:58.205Z,3.10
2023-03-30T01:40:30.269Z,2.22
2023-03-30T01:45:07.911Z,2.75
2023-03-30T01:49:37.916Z,2.50
2023-03-30T01:54:12.645Z,2.30
2023-03-30T01:58:37.592Z,2.20
2023-03-30T02:03:05.867Z,2.30
2023-03-30T02:07:28.104Z,2.13
2023-03-30T02:11:50.096Z,2.22
2023-03-30T02:16:13.619Z,2.25
2023-03-30T02:20:33.089Z,2.20
2023-03-30T02:24:54.125Z,2.70
2023-03-30T02:29:13.187Z,2.20
2023-03-30T02:34:04.545Z,2.20
2023-03-30T02:38:28.239Z,1.85
2023-03-30T02:43:07.121Z,2.10
2023-03-30T02:47:41.329Z,2.10
2023-03-30T02:52:10.411Z,2.55
2023-03-30T03:00:59.538Z,2.20
2023-03-30T03:05:17.398Z,3.33
2023-03-30T03:09:34.678Z,6.03
2023-03-30T03:13:52.380Z,13.38
2023-03-30T03:18:10.516Z,4.97
2023-03-30T03:22:27.708Z,11.00
2023-03-30T03:26:45.717Z,7.38
2023-03-30T03:31:04.037Z,3.77
2023-03-30T03:35:21.775Z,2.40
2023-03-30T03:39:39.592Z,3.55
2023-03-30T03:43:56.758Z,2.42
2023-03-30T03:48:16.117Z,2.55
2023-03-30T03:52:34.705Z,2.33
2023-03-30T03:56:52.101Z,2.78
2023-03-30T04:01:09.358Z,2.72
2023-03-30T04:05:26.963Z,2.50
2023-03-30T04:09:44.187Z,2.70
2023-03-30T04:14:01.624Z,2.58
2023-03-30T04:18:19.073Z,2.72
2023-03-30T04:22:36.624Z,2.95
2023-03-30T04:26:53.858Z,2.40
2023-03-30T04:31:13.198Z,2.70
2023-03-30T04:35:32.189Z,2.95
2023-03-30T04:39:50.594Z,2.50
2023-03-30T04:44:09.820Z,2.50
2023-03-30T04:48:27.020Z,2.53
2023-03-30T04:52:44.207Z,2.95
2023-03-30T04:57:01.878Z,2.78
2023-03-30T05:01:19.266Z,2.53
2023-03-30T05:05:36.882Z,2.80
2023-03-30T05:09:54.061Z,2.47
2023-03-30T05:14:12.344Z,2.47
2023-03-30T05:18:29.688Z,2.38
2023-03-30T05:22:48.177Z,2.65
2023-03-30T05:27:06.826Z,2.38
2023-03-30T05:35:41.292Z,2.60
2023-03-30T05:39:58.569Z,2.53
2023-03-30T05:44:15.925Z,2.67
2023-03-30T05:48:34.235Z,3.00
2023-03-30T05:52:52.678Z,2.80
2023-03-30T05:57:10.022Z,3.20
2023-03-30T06:01:27.842Z,3.70
2023-03-30T06:05:45.727Z,3.47
2023-03-30T06:10:03.293Z,3.80
2023-03-30T06:14:20.579Z,3.90
2023-03-30T06:18:38.360Z,4.22
2023-03-30T06:22:55.687Z,4.60
2023-03-30T06:27:13.275Z,5.75
2023-03-30T06:31:30.670Z,3.80
2023-03-30T06:35:50.774Z,4.00
2023-03-30T06:40:14.624Z,4.25
2023-03-30T06:44:32.557Z,4.00
2023-03-30T06:48:49.934Z,4.30
2023-03-30T06:53:07.697Z,4.22
2023-03-30T06:57:25.088Z,4.20
2023-03-30T07:01:42.735Z,3.58
2023-03-30T07:06:00.054Z,3.85
2023-03-30T07:10:17.731Z,3.53
2023-03-30T07:14:35.714Z,3.83
2023-03-30T07:18:53.301Z,3.87
2023-03-30T07:23:11.757Z,3.75
2023-03-30T07:27:29.197Z,3.95
2023-03-30T07:31:46.988Z,3.47
2023-03-30T07:36:05.609Z,3.50
2023-03-30T07:40:23.181Z,3.75
2023-03-30T07:44:41.255Z,3.00
2023-03-30T07:48:59.362Z,3.70
2023-03-30T07:53:17.036Z,3.55
2023-03-30T07:57:34.446Z,3.40
2023-03-30T08:01:54.618Z,3.28
2023-03-30T08:06:12.366Z,3.10
2023-03-30T08:10:30.183Z,3.38
2023-03-30T08:14:47.865Z,3.28
2023-03-30T08:19:05.410Z,3.03
2023-03-30T08:23:22.639Z,3.78
2023-03-30T08:27:39.905Z,4.13
2023-03-30T08:31:58.007Z,3.47
2023-03-30T08:36:15.580Z,3.43
2023-03-30T08:40:32.891Z,4.00
2023-03-30T08:44:54.838Z,4.93
2023-03-30T08:49:16.548Z,4.28
2023-03-30T08:53:34.684Z,4.60
2023-03-30T08:57:58.594Z,4.22
2023-03-30T09:02:23.650Z,4.32
2023-03-30T09:06:52.548Z,3.75
2023-03-30T09:11:19.123Z,3.88
2023-03-30T09:16:02.419Z,4.32
2023-03-30T09:20:25.794Z,4.43
2023-03-30T09:24:44.600Z,4.85
2023-03-30T09:29:14.755Z,4.90
2023-03-30T09:33:40.775Z,5.07
2023-03-30T09:37:58.211Z,4.05
2023-03-30T09:42:40.883Z,4.68
2023-03-30T09:46:59.698Z,3.95
2023-03-30T09:51:18.659Z,4.65
2023-03-30T09:55:37.986Z,4.10
2023-03-30T09:59:56.451Z,3.60
2023-03-30T10:04:16.510Z,3.85
2023-03-30T10:08:42.309Z,4.15
2023-03-30T10:13:14.429Z,4.18
2023-03-30T10:17:32.029Z,3.72
2023-03-30T10:21:55.034Z,3.08
2023-03-30T10:26:16.191Z,2.72
2023-03-30T10:30:33.751Z,2.67
2023-03-30T10:34:55.003Z,2.90
2023-03-30T10:39:20.066Z,2.83
2023-03-30T10:43:38.379Z,3.00
2023-03-30T10:48:30.730Z,2.90
2023-03-30T10:53:14.016Z,2.80
2023-03-30T10:57:44.815Z,3.25
2023-03-30T11:02:34.533Z,2.80
2023-03-30T11:06:54.567Z,2.90
2023-03-30T11:11:49.114Z,2.97
2023-03-30T11:16:06.984Z,3.25
2023-03-30T11:20:29.464Z,3.27
2023-03-30T11:24:50.788Z,3.28
2023-03-30T11:29:35.946Z,3.45
2023-03-30T11:34:21.697Z,3.70
2023-03-30T11:38:48.128Z,4.07
2023-03-30T11:43:05.474Z,4.30
2023-03-30T11:47:55.316Z,4.63
2023-03-30T11:52:37.541Z,4.40
2023-03-30T11:57:31.700Z,4.53
2023-03-30T12:02:17.149Z,3.88
2023-03-30T12:06:41.843Z,4.43
2023-03-30T12:11:12.878Z,4.30
2023-03-30T12:15:53.854Z,4.20
2023-03-30T12:20:14.289Z,3.97
2023-03-30T12:24:56.587Z,4.15
2023-03-30T12:33:51.383Z,4.43
2023-03-30T12:38:09.176Z,4.10
2023-03-30T12:42:35.876Z,3.80
2023-03-30T12:46:53.250Z,3.33
2023-03-30T12:51:53.027Z,2.85
2023-03-30T12:56:36.525Z,2.70
2023-03-30T13:01:27.288Z,2.58
2023-03-30T13:05:49.450Z,2.40
2023-03-30T13:10:31.847Z,2.58
2023-03-30T13:14:58.748Z,2.78
2023-03-30T13:19:28.041Z,2.30
2023-03-30T13:23:57.917Z,2.53
2023-03-30T13:28:39.302Z,2.58
2023-03-30T13:33:19.082Z,2.30
2023-03-30T13:38:04.278Z,2.00
2023-03-30T13:42:58.892Z,2.53
2023-03-30T13:47:40.689Z,2.45
2023-03-30T13:52:10.584Z,2.42
2023-03-30T13:56:31.440Z,2.45
2023-03-30T14:01:08.011Z,3.00
2023-03-30T14:05:32.144Z,2.95
2023-03-30T14:10:05.096Z,2.80
2023-03-30T14:14:46.472Z,2.50
2023-03-30T14:19:36.787Z,2.65
2023-03-30T14:23:55.240Z,2.33
2023-03-30T14:28:16.459Z,2.35
2023-03-30T14:32:35.180Z,2.33
2023-03-30T14:36:54.862Z,2.50
2023-03-30T14:41:19.825Z,2.25
2023-03-30T14:45:37.812Z,2.60
2023-03-30T14:50:03.103Z,1.80
2023-03-30T14:54:23.732Z,1.60
2023-03-30T14:58:42.754Z,2.13
2023-03-30T15:03:01.475Z,1.10
2023-03-30T15:07:20.789Z,1.10
2023-03-30T15:11:39.491Z,0.80
2023-03-30T15:20:14.623Z,0.90
2023-03-30T15:24:37.400Z,0.82
2023-03-30T15:28:57.901Z,1.70
2023-03-30T15:33:42.829Z,1.13
2023-03-30T15:38:29.075Z,1.00
2023-03-30T15:42:47.614Z,0.75
2023-03-30T15:47:14.647Z,0.90
2023-03-30T15:51:37.932Z,1.00
2023-03-30T15:55:56.061Z,1.08
2023-03-30T16:00:22.079Z,0.82
2023-03-30T16:04:39.297Z,0.77
2023-03-30T16:08:56.559Z,0.60
2023-03-30T16:13:14.141Z,0.82
2023-03-30T16:17:34.578Z,0.75
2023-03-30T16:21:53.092Z,0.88
2023-03-30T16:26:13.634Z,0.85
2023-03-30T16:30:38.568Z,0.60
2023-03-30T16:34:56.479Z,0.80
2023-03-30T16:39:25.531Z,0.83
2023-03-30T16:43:42.806Z,1.17
2023-03-30T16:48:00.881Z,1.50
2023-03-30T16:52:18.273Z,1.50
2023-03-30T16:56:35.901Z,1.40
2023-03-30T17:00:56.354Z,1.83
2023-03-30T17:05:14.416Z,1.30
2023-03-30T17:09:31.695Z,1.20
2023-03-30T17:13:49.189Z,1.20
2023-03-30T17:18:15.991Z,1.13
2023-03-30T17:22:33.532Z,1.23
2023-03-30T17:26:50.965Z,1.13
2023-03-30T17:31:18.074Z,0.98
2023-03-30T17:35:35.292Z,1.40
2023-03-30T17:39:52.837Z,1.40
2023-03-30T17:44:10.034Z,1.55
2023-03-30T17:48:27.220Z,1.15
2023-03-30T17:52:44.413Z,1.30
2023-03-30T17:57:01.744Z,1.75
2023-03-30T18:01:19.012Z,1.83
2023-03-30T18:05:36.404Z,1.60
2023-03-30T18:09:53.685Z,1.52
2023-03-30T18:14:11.310Z,2.13
2023-03-30T18:18:30.600Z,2.00
2023-03-30T18:22:48.937Z,1.80
2023-03-30T18:27:06.497Z,1.70
2023-03-30T18:31:23.955Z,3.80
2023-03-30T18:35:43.251Z,1.92
2023-03-30T18:40:01.053Z,2.55
2023-03-30T18:44:21.358Z,2.20
2023-03-30T18:48:38.930Z,2.50
2023-03-30T18:52:56.420Z,3.10
2023-03-30T18:57:13.893Z,3.05
2023-03-30T19:01:31.975Z,5.60
2023-03-30T19:05:50.051Z,2.65
2023-03-30T19:10:11.707Z,1.90
2023-03-30T19:14:29.099Z,1.83
2023-03-30T19:18:49.499Z,1.90
2023-03-30T19:23:08.401Z,2.20
2023-03-30T19:27:25.849Z,1.90
2023-03-30T19:31:44.329Z,2.42
2023-03-30T19:36:01.925Z,2.20
2023-03-30T19:40:21.267Z,1.77
2023-03-30T19:44:38.514Z,1.77
2023-03-30T19:48:56.896Z,1.42
2023-03-30T19:53:14.505Z,1.70
2023-03-30T19:57:31.860Z,1.67
2023-03-30T20:01:49.445Z,1.58
2023-03-30T20:06:11.832Z,2.13
2023-03-30T20:10:29.380Z,1.80
2023-03-30T20:14:46.721Z,2.10
2023-03-30T20:19:15.930Z,1.80
2023-03-30T20:23:40.281Z,2.17
2023-03-30T20:27:57.847Z,1.52
2023-03-30T20:32:16.572Z,1.65
2023-03-30T20:40:59.338Z,1.67
2023-03-30T20:45:17.771Z,1.50
2023-03-30T20:49:35.143Z,2.10
2023-03-30T20:53:52.383Z,1.52
2023-03-30T20:58:09.591Z,2.00
2023-03-30T21:02:27.720Z,1.90
2023-03-30T21:06:46.856Z,1.67
2023-03-30T21:11:04.701Z,1.90
2023-03-30T21:15:22.014Z,2.03
2023-03-30T21:19:39.233Z,1.63
2023-03-30T21:23:57.330Z,2.00
2023-03-30T21:28:15.231Z,1.88
2023-03-30T21:32:32.703Z,1.90
2023-03-30T21:36:49.936Z,1.90
2023-03-30T21:41:17.119Z,2.15
2023-03-30T21:45:34.420Z,1.92
2023-03-30T21:49:53.062Z,1.77
2023-03-30T21:54:10.884Z,1.50
2023-03-30T21:58:28.808Z,1.70
2023-03-30T22:02:46.184Z,1.80
2023-03-30T22:07:04.522Z,1.73
2023-03-30T22:11:24.281Z,1.85
2023-03-30T22:15:41.488Z,1.70
2023-03-30T22:19:58.829Z,2.22
2023-03-30T22:24:18.175Z,1.73
2023-03-30T22:28:35.859Z,2.47
2023-03-30T22:32:53.146Z,2.13
2023-03-30T22:37:10.500Z,2.22
2023-03-30T22:41:28.244Z,1.83
2023-03-30T22:45:45.939Z,2.05
2023-03-30T22:50:04.380Z,2.72
2023-03-30T22:54:21.977Z,2.10
2023-03-30T22:58:39.142Z,2.15
2023-03-30T23:02:56.528Z,2.15
2023-03-30T23:07:14.408Z,2.47
2023-03-30T23:11:32.512Z,2.10
2023-03-30T23:15:49.825Z,1.90
2023-03-30T23:20:10.147Z,1.92
2023-03-30T23:24:27.438Z,1.52
2023-03-30T23:28:45.272Z,1.70
2023-03-30T23:33:02.491Z,2.05
2023-03-30T23:37:21.960Z,2.25
2023-03-30T23:41:39.192Z,1.80
2023-03-30T23:45:56.468Z,1.70
2023-03-30T23:50:13.762Z,1.58
2023-03-30T23:54:31.658Z,1.77
2023-03-30T23:58:49.013Z,1.53
